Time;durP1;ratioP1;P1;durP2;ratioP2;P2;SDS_P1;SDS_P2;PMS_P1;PMS_P2;Temp;Humidity;BMP_temperature;BMP_pressure;BME280_temperature;BME280_humidity;BME280_pressure;Samples;Min_cycle;Max_cycle;Signal;HPM_P1;HPM_P2
2021/05/19 00:02:00;;;;;;;11.73;8.70;;;9.70;99.90;;;;;;5093294;28;20177;-74
2021/05/19 00:04:26;;;;;;;10.17;7.77;;;9.70;99.90;;;;;;5093293;28;20170;-75
2021/05/19 00:06:51;;;;;;;8.70;7.47;;;9.80;99.90;;;;;;5092948;28;20202;-75
2021/05/19 00:09:17;;;;;;;8.70;7.73;;;9.80;99.90;;;;;;5093052;28;20187;-75
2021/05/19 00:11:46;;;;;;;10.70;8.00;;;9.80;99.90;;;;;;5092974;28;20563;-74
2021/05/19 00:14:15;;;;;;;8.67;6.90;;;9.70;99.90;;;;;;5093207;28;20538;-73
2021/05/19 00:16:45;;;;;;;13.03;7.63;;;9.50;99.90;;;;;;5091542;28;20431;-74
2021/05/19 00:19:11;;;;;;;10.53;8.40;;;9.50;99.90;;;;;;5092730;28;20439;-73
2021/05/19 00:21:36;;;;;;;12.20;9.57;;;9.40;99.90;;;;;;5091394;28;20434;-73
2021/05/19 00:24:04;;;;;;;9.27;7.30;;;9.30;99.90;;;;;;5092940;28;20227;-73
2021/05/19 00:26:29;;;;;;;9.30;8.30;;;9.40;99.90;;;;;;5092276;28;20228;-73
2021/05/19 00:28:55;;;;;;;12.50;8.30;;;9.40;99.90;;;;;;5092542;28;20468;-74
2021/05/19 00:31:23;;;;;;;10.63;7.43;;;9.40;99.90;;;;;;5093009;28;20246;-73
2021/05/19 00:33:49;;;;;;;10.43;9.10;;;9.40;99.90;;;;;;5092549;28;20553;-73
2021/05/19 00:36:16;;;;;;;11.40;8.50;;;9.30;99.90;;;;;;5092218;28;20852;-74
2021/05/19 00:38:41;;;;;;;9.27;7.03;;;9.30;99.90;;;;;;5092550;28;20467;-73
2021/05/19 00:41:08;;;;;;;9.97;8.17;;;9.20;99.90;;;;;;5071793;28;20463;-73
2021/05/19 00:43:34;;;;;;;11.60;7.83;;;9.20;99.90;;;;;;5072395;28;20167;-73
2021/05/19 00:45:59;;;;;;;13.27;8.83;;;9.30;99.90;;;;;;5079531;28;20832;-73
2021/05/19 00:48:25;;;;;;;15.17;10.67;;;9.20;99.90;;;;;;5091898;28;20273;-74
2021/05/19 00:50:50;;;;;;;9.77;8.60;;;9.20;99.90;;;;;;5090893;28;20169;-74
2021/05/19 00:53:16;;;;;;;11.17;8.90;;;9.20;99.90;;;;;;5092432;28;20169;-73
2021/05/19 00:55:41;;;;;;;12.77;8.77;;;9.30;99.90;;;;;;5092224;28;20181;-74
2021/05/19 00:58:07;;;;;;;10.20;8.90;;;9.20;99.90;;;;;;5091751;28;20566;-75
2021/05/19 01:00:34;;;;;;;9.50;7.43;;;9.20;99.90;;;;;;5092575;28;20173;-75
2021/05/19 01:03:00;;;;;;;9.93;7.47;;;9.20;99.90;;;;;;5092439;28;20175;-73
2021/05/19 01:05:32;;;;;;;8.00;7.20;;;9.20;99.90;;;;;;5091053;28;20480;-74
2021/05/19 01:10:41;;;;;;;12.93;7.93;;;9.40;99.90;;;;;;5092574;28;20407;-73
2021/05/19 01:13:07;;;;;;;9.90;7.60;;;9.40;99.90;;;;;;5092083;28;20404;-74
2021/05/19 01:15:34;;;;;;;8.97;7.77;;;9.50;99.90;;;;;;5091966;28;20254;-74
2021/05/19 01:18:02;;;;;;;12.23;8.23;;;9.50;99.90;;;;;;5091402;28;20456;-73
2021/05/19 01:20:28;;;;;;;11.13;7.67;;;9.50;99.90;;;;;;5091775;28;20484;-74
2021/05/19 01:22:56;;;;;;;9.10;7.67;;;9.50;99.90;;;;;;5090370;28;20910;-74
2021/05/19 01:25:22;;;;;;;10.33;8.27;;;9.50;99.90;;;;;;5091738;28;20203;-73
2021/05/19 01:27:53;;;;;;;12.17;9.23;;;9.60;99.90;;;;;;5091329;28;21049;-74
2021/05/19 01:30:19;;;;;;;9.40;7.60;;;9.70;99.90;;;;;;5071354;28;20534;-73
2021/05/19 01:32:45;;;;;;;9.47;7.37;;;9.80;99.90;;;;;;5071172;28;20820;-73
2021/05/19 01:35:13;;;;;;;8.67;7.70;;;9.80;99.90;;;;;;5071553;28;20401;-73
2021/05/19 01:37:39;;;;;;;8.83;6.43;;;9.90;99.90;;;;;;5070614;28;20245;-72
2021/05/19 01:40:06;;;;;;;8.83;7.93;;;9.90;99.90;;;;;;5069777;28;20911;-75
2021/05/19 01:42:31;;;;;;;8.03;7.10;;;10.00;99.90;;;;;;5067950;28;20575;-73
2021/05/19 01:44:57;;;;;;;8.90;7.30;;;10.00;99.90;;;;;;5071451;28;20409;-73
2021/05/19 01:47:40;;;;;;;13.60;7.70;;;10.10;99.90;;;;;;5098158;28;20196;-73
2021/05/19 01:50:10;;;;;;;8.03;6.47;;;10.00;99.90;;;;;;5112023;28;20169;-73
2021/05/19 01:52:36;;;;;;;8.00;6.33;;;10.00;99.90;;;;;;5111815;28;20443;-74
2021/05/19 01:55:03;;;;;;;7.10;6.30;;;10.00;99.90;;;;;;5111860;28;20450;-74
2021/05/19 01:57:29;;;;;;;8.27;6.07;;;10.20;99.90;;;;;;5091651;28;20541;-74
2021/05/19 01:59:55;;;;;;;7.57;6.60;;;10.20;99.90;;;;;;5091950;28;20399;-74
2021/05/19 02:02:22;;;;;;;6.97;6.00;;;10.20;99.90;;;;;;5092064;28;20181;-74
2021/05/19 02:04:48;;;;;;;9.87;5.90;;;10.20;99.90;;;;;;5091601;28;20396;-73
2021/05/19 02:07:13;;;;;;;7.20;6.37;;;10.30;99.90;;;;;;5091094;28;20444;-73
2021/05/19 02:09:39;;;;;;;6.20;5.43;;;10.30;99.90;;;;;;5091133;28;20428;-73
2021/05/19 02:12:05;;;;;;;8.63;6.17;;;10.30;99.90;;;;;;5091224;28;20499;-74
2021/05/19 02:14:30;;;;;;;6.93;6.30;;;10.30;99.90;;;;;;5091618;28;20219;-73
2021/05/19 02:16:56;;;;;;;8.80;5.97;;;10.30;99.90;;;;;;5090045;28;20201;-73
2021/05/19 02:19:21;;;;;;;9.13;6.53;;;10.30;99.90;;;;;;5091260;28;20243;-74
2021/05/19 02:21:48;;;;;;;6.10;5.50;;;10.30;99.90;;;;;;5091498;28;20716;-74
2021/05/19 02:24:15;;;;;;;9.53;6.43;;;10.30;99.90;;;;;;5091504;28;20248;-73
2021/05/19 02:26:42;;;;;;;8.20;6.20;;;10.30;99.90;;;;;;5090879;28;20516;-74
2021/05/19 02:29:08;;;;;;;7.43;6.10;;;10.30;99.90;;;;;;5090883;28;20428;-73
2021/05/19 02:31:34;;;;;;;6.17;5.57;;;10.30;99.90;;;;;;5091075;28;20714;-73
2021/05/19 02:34:00;;;;;;;7.57;6.77;;;10.30;99.90;;;;;;5091084;28;20399;-74
2021/05/19 02:36:25;;;;;;;10.43;6.80;;;10.30;99.90;;;;;;5090820;28;20165;-74
2021/05/19 02:38:52;;;;;;;10.60;6.07;;;10.30;99.90;;;;;;5090972;28;20657;-74
2021/05/19 02:41:17;;;;;;;7.47;6.77;;;10.30;99.90;;;;;;5089744;28;20181;-75
2021/05/19 02:43:43;;;;;;;7.07;6.37;;;10.30;99.90;;;;;;5091035;28;20412;-73
2021/05/19 02:46:09;;;;;;;7.80;6.03;;;10.30;99.90;;;;;;5089287;28;20169;-74
2021/05/19 02:48:34;;;;;;;7.67;6.40;;;10.30;99.90;;;;;;5089356;28;20440;-74
2021/05/19 02:51:00;;;;;;;7.60;6.43;;;10.30;99.90;;;;;;5093946;28;20249;-73
2021/05/19 02:53:26;;;;;;;6.60;5.90;;;10.30;99.90;;;;;;5094941;28;20250;-74
2021/05/19 02:55:51;;;;;;;6.60;6.00;;;10.20;99.90;;;;;;5094701;28;20189;-73
2021/05/19 02:58:17;;;;;;;7.33;5.60;;;10.20;99.90;;;;;;5093999;28;20281;-74
2021/05/19 03:00:42;;;;;;;7.67;6.87;;;10.30;99.90;;;;;;5094658;28;20185;-74
2021/05/19 03:03:08;;;;;;;6.80;6.20;;;10.30;99.90;;;;;;5094619;28;20908;-73
2021/05/19 03:05:33;;;;;;;7.27;5.90;;;10.30;99.90;;;;;;5094627;28;20559;-73
2021/05/19 03:07:59;;;;;;;10.87;6.97;;;10.30;99.90;;;;;;5094265;28;20250;-73
2021/05/19 03:10:25;;;;;;;9.70;6.80;;;10.20;99.90;;;;;;5094568;28;20162;-73
2021/05/19 03:12:52;;;;;;;10.97;6.30;;;10.20;99.90;;;;;;5094330;28;20170;-73
2021/05/19 03:15:18;;;;;;;9.60;6.77;;;10.20;99.90;;;;;;5094629;28;20845;-73
2021/05/19 03:17:45;;;;;;;7.10;6.40;;;10.20;99.90;;;;;;5094132;28;20498;-73
2021/05/19 03:20:11;;;;;;;9.80;6.73;;;10.20;99.90;;;;;;5094335;28;20412;-72
2021/05/19 03:22:36;;;;;;;7.73;7.03;;;10.30;99.90;;;;;;5096723;28;20426;-72
2021/05/19 03:25:03;;;;;;;7.83;6.63;;;10.20;99.90;;;;;;5099498;28;21150;-72
2021/05/19 03:27:28;;;;;;;7.33;6.50;;;10.30;99.90;;;;;;5093730;28;20193;-74
2021/05/19 03:29:54;;;;;;;8.30;5.93;;;10.30;99.90;;;;;;5094166;28;20416;-73
2021/05/19 03:32:19;;;;;;;12.40;6.17;;;10.30;99.90;;;;;;5094179;28;20172;-74
2021/05/19 03:34:45;;;;;;;7.20;6.33;;;10.30;99.90;;;;;;5094304;28;20204;-74
2021/05/19 03:37:10;;;;;;;6.77;6.07;;;10.40;99.90;;;;;;5093945;28;20174;-73
2021/05/19 03:39:36;;;;;;;7.83;6.63;;;10.40;99.90;;;;;;5094260;28;20759;-73
2021/05/19 03:42:01;;;;;;;10.57;7.70;;;10.40;99.90;;;;;;5092671;28;20200;-73
2021/05/19 03:44:27;;;;;;;7.80;6.93;;;10.50;99.90;;;;;;5094006;28;20174;-74
2021/05/19 03:46:54;;;;;;;6.97;6.20;;;10.40;99.90;;;;;;5093702;28;20201;-72
2021/05/19 03:49:20;;;;;;;7.40;6.70;;;10.30;99.90;;;;;;5093742;28;20628;-74
2021/05/19 03:51:46;;;;;;;7.30;6.63;;;10.30;99.90;;;;;;5093525;28;20414;-73
2021/05/19 03:54:11;;;;;;;6.93;5.87;;;10.20;99.90;;;;;;5093387;28;20407;-73
2021/05/19 03:56:37;;;;;;;5.70;5.20;;;10.10;99.90;;;;;;5093212;28;20416;-73
2021/05/19 03:59:03;;;;;;;10.73;6.73;;;10.10;99.90;;;;;;5093245;28;20193;-74
2021/05/19 04:01:28;;;;;;;9.00;6.10;;;10.20;99.90;;;;;;5093048;28;20199;-74
2021/05/19 04:03:54;;;;;;;10.87;7.77;;;10.20;99.90;;;;;;5093279;28;20426;-73
2021/05/19 04:06:24;;;;;;;7.43;6.73;;;10.30;99.90;;;;;;5093200;28;20198;-73
2021/05/19 04:08:50;;;;;;;9.30;8.30;;;10.30;99.90;;;;;;5093352;28;20207;-74
2021/05/19 04:11:16;;;;;;;7.03;6.30;;;10.30;99.90;;;;;;5093396;28;20404;-74
2021/05/19 04:13:41;;;;;;;7.70;6.90;;;10.50;99.90;;;;;;5093597;28;20399;-71
2021/05/19 04:16:07;;;;;;;8.90;7.57;;;10.50;99.90;;;;;;5093357;28;20654;-73
2021/05/19 04:18:33;;;;;;;8.23;6.60;;;10.60;99.90;;;;;;5092932;28;20205;-73
2021/05/19 04:20:59;;;;;;;7.20;6.37;;;10.70;99.90;;;;;;5093049;28;20906;-73
2021/05/19 04:23:26;;;;;;;8.83;7.63;;;10.80;99.90;;;;;;5093047;28;20188;-74
2021/05/19 04:25:53;;;;;;;8.13;6.50;;;10.70;99.90;;;;;;5092986;28;20173;-73
2021/05/19 04:28:20;;;;;;;8.73;7.80;;;10.60;99.90;;;;;;5092771;28;20478;-73
2021/05/19 04:30:46;;;;;;;9.67;8.67;;;10.70;99.90;;;;;;5093006;28;20463;-73
2021/05/19 04:33:11;;;;;;;10.80;6.33;;;10.70;99.90;;;;;;5092641;28;20883;-73
2021/05/19 04:35:37;;;;;;;8.30;6.83;;;10.70;99.90;;;;;;5092894;28;20395;-73
2021/05/19 04:38:03;;;;;;;9.27;6.53;;;10.80;99.90;;;;;;5092585;28;20190;-74
2021/05/19 04:40:29;;;;;;;8.03;6.53;;;11.10;99.90;;;;;;5092759;28;20540;-73
2021/05/19 04:42:55;;;;;;;10.77;7.27;;;11.00;99.90;;;;;;5092810;28;20170;-73
2021/05/19 04:45:21;;;;;;;7.63;6.77;;;11.00;99.90;;;;;;5093100;28;20784;-74
2021/05/19 04:47:47;;;;;;;8.80;7.07;;;11.30;99.90;;;;;;5092371;28;20455;-74
2021/05/19 04:50:13;;;;;;;8.80;7.63;;;11.30;99.90;;;;;;5092517;28;20411;-72
2021/05/19 04:52:38;;;;;;;9.53;8.20;;;11.10;99.90;;;;;;5092539;28;20211;-71
2021/05/19 04:55:05;;;;;;;9.00;7.17;;;11.10;99.90;;;;;;5092405;28;20416;-73
2021/05/19 04:57:31;;;;;;;8.10;7.20;;;11.30;99.90;;;;;;5092197;28;20178;-74
2021/05/19 04:59:57;;;;;;;6.77;5.20;;;11.60;99.90;;;;;;5092351;28;20410;-74
2021/05/19 05:02:23;;;;;;;9.60;6.60;;;11.90;99.90;;;;;;5092251;28;20253;-74
2021/05/19 05:04:50;;;;;;;6.87;5.20;;;12.20;99.90;;;;;;5092352;28;20181;-73
2021/05/19 05:07:16;;;;;;;6.30;5.67;;;13.10;99.90;;;;;;5092419;28;20206;-74
2021/05/19 05:09:45;;;;;;;7.33;6.30;;;13.00;99.90;;;;;;5092314;28;20425;-73
2021/05/19 05:12:10;;;;;;;6.67;6.07;;;12.60;99.90;;;;;;5091832;28;20163;-74
2021/05/19 05:14:36;;;;;;;7.10;6.50;;;12.60;99.90;;;;;;5091384;28;20457;-74
2021/05/19 05:17:02;;;;;;;6.97;6.23;;;12.90;99.90;;;;;;5091963;28;20266;-74
2021/05/19 05:19:27;;;;;;;5.53;5.03;;;13.30;99.90;;;;;;5092094;28;20768;-74
2021/05/19 05:21:53;;;;;;;7.27;6.07;;;14.40;99.90;;;;;;5092036;28;20206;-75
2021/05/19 05:24:18;;;;;;;5.50;5.00;;;14.10;99.90;;;;;;5091890;28;20189;-74
2021/05/19 05:26:43;;;;;;;6.07;5.53;;;15.10;99.90;;;;;;5091919;28;20194;-72
2021/05/19 05:29:09;;;;;;;5.17;4.77;;;16.00;99.90;;;;;;5091806;28;20681;-72
2021/05/19 05:31:34;;;;;;;6.00;5.50;;;15.60;99.90;;;;;;5091826;28;20179;-73
2021/05/19 05:34:00;;;;;;;7.13;5.63;;;15.40;99.90;;;;;;5091766;28;20571;-74
2021/05/19 05:36:25;;;;;;;6.60;6.00;;;15.60;99.90;;;;;;5091685;28;20187;-74
2021/05/19 05:38:51;;;;;;;5.53;5.00;;;14.90;99.90;;;;;;5091758;28;20191;-73
2021/05/19 05:41:17;;;;;;;5.87;5.33;;;14.90;99.90;;;;;;5091712;28;20172;-74
2021/05/19 05:43:42;;;;;;;5.47;4.90;;;15.40;99.90;;;;;;5085413;28;20311;-73
2021/05/19 05:46:08;;;;;;;5.80;5.30;;;15.40;99.90;;;;;;5091338;28;20171;-74
2021/05/19 05:48:33;;;;;;;6.60;5.60;;;15.80;99.90;;;;;;5091149;28;20178;-74
2021/05/19 05:51:00;;;;;;;7.33;5.73;;;15.00;99.90;;;;;;5091521;28;20169;-75
2021/05/19 05:53:25;;;;;;;5.37;4.87;;;15.50;99.90;;;;;;5091488;28;20155;-74
2021/05/19 05:55:51;;;;;;;6.00;5.40;;;16.10;99.90;;;;;;5091353;28;20439;-74
2021/05/19 05:58:16;;;;;;;5.10;4.70;;;16.50;99.90;;;;;;5090718;28;20197;-73
2021/05/19 06:00:42;;;;;;;5.57;4.90;;;16.20;99.90;;;;;;5091430;28;20638;-74
2021/05/19 06:03:07;;;;;;;5.50;5.00;;;16.00;99.90;;;;;;5091156;28;20171;-73
2021/05/19 06:05:34;;;;;;;5.30;4.90;;;17.00;99.90;;;;;;5091883;28;20543;-74
2021/05/19 06:08:02;;;;;;;5.63;5.00;;;17.00;99.90;;;;;;5090991;28;20545;-73
2021/05/19 06:10:28;;;;;;;5.60;5.10;;;15.70;99.90;;;;;;5091465;28;20409;-74
2021/05/19 06:12:53;;;;;;;5.50;4.70;;;15.70;99.90;;;;;;5091309;28;20417;-75
2021/05/19 06:15:19;;;;;;;5.53;4.93;;;16.50;99.90;;;;;;5091083;28;20178;-73
2021/05/19 06:17:44;;;;;;;4.43;4.03;;;16.70;99.90;;;;;;5090740;28;20175;-73
2021/05/19 06:20:10;;;;;;;4.70;4.30;;;16.60;99.90;;;;;;5091241;28;20650;-74
2021/05/19 06:22:36;;;;;;;6.00;5.00;;;16.70;99.90;;;;;;5091006;28;20249;-74
2021/05/19 06:25:02;;;;;;;4.47;4.07;;;16.30;99.90;;;;;;5093123;28;20462;-75
2021/05/19 06:27:27;;;;;;;4.73;4.33;;;17.40;99.90;;;;;;5093690;28;20200;-73
2021/05/19 06:29:53;;;;;;;4.03;3.73;;;18.50;99.90;;;;;;5095181;28;20261;-73
2021/05/19 06:32:18;;;;;;;4.63;4.03;;;19.50;99.90;;;;;;5095460;28;20228;-73
2021/05/19 06:34:43;;;;;;;4.67;3.57;;;18.80;99.90;;;;;;5095007;28;20172;-73
2021/05/19 06:37:09;;;;;;;5.43;4.13;;;18.50;99.90;;;;;;5094891;28;20176;-73
2021/05/19 06:39:34;;;;;;;4.40;4.00;;;19.10;99.90;;;;;;5094919;28;20706;-73
2021/05/19 06:42:00;;;;;;;4.00;3.70;;;19.30;99.90;;;;;;5094920;28;20693;-73
2021/05/19 06:44:26;;;;;;;3.67;3.37;;;19.10;99.90;;;;;;5094789;28;20636;-73
2021/05/19 06:46:51;;;;;;;4.57;3.60;;;19.40;99.90;;;;;;5094542;28;20236;-73
2021/05/19 06:49:17;;;;;;;4.40;3.97;;;19.80;99.90;;;;;;5095021;28;20199;-73
2021/05/19 06:51:44;;;;;;;5.80;3.30;;;19.60;99.90;;;;;;5094840;28;20191;-73
2021/05/19 06:54:10;;;;;;;3.60;3.03;;;19.60;99.90;;;;;;5094757;28;20391;-73
2021/05/19 06:56:36;;;;;;;3.03;2.73;;;20.40;99.90;;;;;;5094533;28;20419;-73
2021/05/19 06:59:02;;;;;;;3.90;3.60;;;19.70;99.90;;;;;;5094465;28;20455;-72
2021/05/19 07:01:28;;;;;;;4.50;3.80;;;19.40;99.90;;;;;;5082099;28;20514;-73
2021/05/19 07:03:53;;;;;;;4.73;3.10;;;18.40;99.90;;;;;;5089492;28;20504;-73
2021/05/19 07:06:20;;;;;;;3.37;2.93;;;17.70;99.90;;;;;;5092336;28;20179;-73
2021/05/19 07:08:46;;;;;;;3.30;3.00;;;18.10;99.90;;;;;;5074126;28;20189;-72
2021/05/19 07:11:12;;;;;;;3.33;3.03;;;18.30;99.90;;;;;;5074219;28;20485;-75
2021/05/19 07:13:38;;;;;;;4.17;2.90;;;17.20;99.90;;;;;;5075155;28;20395;-74
2021/05/19 07:16:04;;;;;;;4.90;3.37;;;19.10;99.90;;;;;;5074375;28;20413;-74
2021/05/19 07:18:30;;;;;;;4.03;3.73;;;18.80;99.90;;;;;;5073511;28;20681;-75
2021/05/19 07:20:55;;;;;;;4.70;2.97;;;19.00;99.90;;;;;;5095985;28;20897;-75
2021/05/19 07:23:21;;;;;;;3.07;2.77;;;20.20;99.90;;;;;;5093365;28;20233;-73
2021/05/19 07:25:47;;;;;;;3.90;2.83;;;18.80;99.90;;;;;;5097298;28;20176;-73
2021/05/19 07:28:13;;;;;;;3.93;3.10;;;19.00;99.90;;;;;;5114119;27;20286;-73
2021/05/19 07:30:39;;;;;;;3.53;2.90;;;19.10;99.90;;;;;;5096681;27;20172;-73
2021/05/19 07:33:06;;;;;;;3.30;3.10;;;20.60;99.90;;;;;;5093766;28;20411;-73
2021/05/19 07:35:32;;;;;;;3.13;2.93;;;19.20;99.90;;;;;;5093398;28;20785;-74
2021/05/19 07:37:58;;;;;;;2.77;2.47;;;19.10;99.90;;;;;;5093137;28;20435;-75
2021/05/19 07:40:24;;;;;;;2.20;2.10;;;19.20;99.90;;;;;;5093619;28;20921;-73
2021/05/19 07:42:50;;;;;;;2.93;2.63;;;18.50;99.90;;;;;;5096141;28;20184;-74
2021/05/19 07:45:16;;;;;;;2.60;2.40;;;18.80;99.90;;;;;;5091513;28;20446;-74
2021/05/19 07:47:42;;;;;;;2.40;2.23;;;18.30;99.90;;;;;;5076818;28;20540;-75
2021/05/19 07:50:09;;;;;;;2.53;2.33;;;20.00;99.90;;;;;;5093672;28;20414;-73
2021/05/19 07:52:35;;;;;;;2.50;2.30;;;20.00;99.80;;;;;;5094014;28;20704;-73
2021/05/19 07:55:05;;;;;;;2.30;2.10;;;19.50;99.80;;;;;;5093426;28;20426;-75
2021/05/19 07:58:15;;;;;;;2.97;2.70;;;19.60;97.80;;;;;;5093354;28;20399;-77
2021/05/19 08:02:54;;;;;;;3.13;2.90;;;20.30;96.70;;;;;;5093368;28;20805;-74
2021/05/19 08:05:19;;;;;;;2.70;2.50;;;19.10;98.50;;;;;;5093454;28;20500;-74
2021/05/19 08:07:45;;;;;;;2.40;2.10;;;18.70;98.90;;;;;;5093131;28;20263;-73
2021/05/19 08:10:11;;;;;;;1.77;1.67;;;18.70;99.50;;;;;;5093868;28;20634;-75
2021/05/19 08:12:37;;;;;;;2.77;2.57;;;18.70;99.90;;;;;;5093749;28;20218;-73
2021/05/19 08:15:03;;;;;;;2.57;2.20;;;18.30;99.90;;;;;;5091841;28;20439;-73
2021/05/19 08:17:28;;;;;;;2.33;2.13;;;18.00;99.90;;;;;;5092747;28;20532;-74
2021/05/19 08:19:53;;;;;;;1.67;1.27;;;18.10;99.90;;;;;;5088248;28;20422;-74
2021/05/19 08:22:19;;;;;;;2.10;1.83;;;17.70;99.90;;;;;;5093061;28;20188;-75
2021/05/19 08:24:45;;;;;;;1.70;1.47;;;19.10;99.80;;;;;;5093294;28;20537;-73
2021/05/19 08:27:11;;;;;;;1.67;1.57;;;19.30;98.50;;;;;;5092837;28;20199;-73
2021/05/19 08:29:37;;;;;;;1.60;1.50;;;18.50;99.80;;;;;;5092844;28;20683;-75
2021/05/19 08:32:03;;;;;;;1.87;1.70;;;18.90;99.90;;;;;;5092782;28;20479;-73
2021/05/19 08:34:29;;;;;;;1.60;1.50;;;19.70;99.20;;;;;;5092957;28;20161;-73
2021/05/19 08:36:54;;;;;;;2.50;1.70;;;20.50;97.50;;;;;;5092879;28;20414;-73
2021/05/19 08:39:20;;;;;;;2.37;2.20;;;20.80;98.10;;;;;;5092976;28;20198;-73
2021/05/19 08:41:47;;;;;;;2.23;2.03;;;19.10;99.60;;;;;;5092917;28;20173;-75
2021/05/19 08:44:13;;;;;;;3.00;2.40;;;16.90;99.90;;;;;;5092720;28;20168;-74
2021/05/19 08:46:52;;;;;;;2.50;2.30;;;17.40;99.90;;;;;;5092268;28;20943;-74
2021/05/19 08:49:18;;;;;;;1.93;1.83;;;18.30;99.90;;;;;;5092216;28;20180;-73
2021/05/19 08:51:44;;;;;;;1.90;1.80;;;19.70;99.90;;;;;;5091227;28;20477;-73
2021/05/19 08:54:10;;;;;;;2.17;1.97;;;19.00;99.90;;;;;;5092404;28;20170;-73
2021/05/19 08:56:38;;;;;;;2.30;1.90;;;19.00;98.80;;;;;;5092493;28;20398;-73
2021/05/19 08:59:04;;;;;;;4.90;2.50;;;18.20;99.90;;;;;;5084753;28;20879;-73
2021/05/19 09:01:39;;;;;;;2.40;1.90;;;18.20;98.50;;;;;;5071888;28;20868;-72
2021/05/19 09:04:07;;;;;;;1.70;1.60;;;18.20;97.80;;;;;;5071951;28;20726;-72
2021/05/19 09:06:33;;;;;;;1.80;1.43;;;18.70;95.60;;;;;;5071785;28;20487;-74
2021/05/19 09:08:59;;;;;;;2.37;1.80;;;19.10;95.20;;;;;;5072543;28;20532;-74
2021/05/19 09:11:24;;;;;;;1.70;1.60;;;19.40;95.00;;;;;;5071325;28;20413;-75
2021/05/19 09:13:50;;;;;;;2.20;2.00;;;20.00;95.40;;;;;;5070559;28;20268;-73
2021/05/19 09:16:29;;;;;;;3.63;1.80;;;19.30;94.70;;;;;;5071466;28;20659;-73
2021/05/19 09:18:57;;;;;;;2.20;2.00;;;18.90;95.10;;;;;;5071685;28;20597;-73
2021/05/19 09:21:35;;;;;;;2.33;2.13;;;19.20;95.80;;;;;;5071507;28;20905;-75
2021/05/19 09:24:03;;;;;;;1.70;1.60;;;18.50;96.00;;;;;;5072009;28;20854;-75
2021/05/19 09:26:29;;;;;;;2.20;1.87;;;19.60;96.60;;;;;;5072251;28;20565;-74
2021/05/19 09:29:18;;;;;;;2.40;2.20;;;19.20;97.10;;;;;;5071601;28;20424;-73
2021/05/19 09:31:55;;;;;;;1.57;1.47;;;18.50;95.80;;;;;;5088767;28;20176;-72
2021/05/19 09:34:22;;;;;;;2.53;2.20;;;19.00;94.40;;;;;;5091639;28;20380;-73
2021/05/19 09:36:48;;;;;;;2.47;2.27;;;18.40;95.40;;;;;;5089897;28;20406;-73
2021/05/19 09:39:13;;;;;;;2.33;1.83;;;17.50;97.20;;;;;;5088055;28;20450;-73
2021/05/19 09:41:39;;;;;;;2.43;2.27;;;17.80;98.20;;;;;;5100067;28;20538;-72
2021/05/19 09:44:05;;;;;;;2.10;1.87;;;17.50;97.30;;;;;;5071394;28;20167;-73
2021/05/19 09:49:26;;;;;;;2.37;2.20;;;17.80;97.60;;;;;;5071490;28;20428;-73
2021/05/19 09:51:53;;;;;;;2.87;1.43;;;18.00;98.40;;;;;;5062197;28;20211;-73
2021/05/19 09:54:26;;;;;;;2.23;1.37;;;17.90;98.10;;;;;;5073468;28;20441;-73
2021/05/19 09:56:57;;;;;;;2.00;1.70;;;17.90;98.40;;;;;;5071645;28;20424;-73
2021/05/19 09:59:23;;;;;;;1.80;1.70;;;18.20;95.80;;;;;;5076386;28;20433;-74
2021/05/19 10:01:49;;;;;;;2.30;2.10;;;18.50;96.80;;;;;;5091131;28;20414;-73
2021/05/19 10:04:16;;;;;;;1.70;1.60;;;18.50;96.40;;;;;;5091282;28;20459;-73
2021/05/19 10:06:42;;;;;;;1.67;1.57;;;18.30;98.50;;;;;;5082054;28;20567;-73
2021/05/19 10:09:08;;;;;;;1.73;1.60;;;18.00;97.30;;;;;;5075795;28;20436;-71
2021/05/19 10:11:34;;;;;;;1.83;1.73;;;18.40;97.70;;;;;;5073076;28;20489;-73
2021/05/19 10:14:00;;;;;;;2.50;2.20;;;18.40;98.60;;;;;;5070125;28;20262;-73
2021/05/19 10:16:25;;;;;;;2.10;2.00;;;18.60;97.70;;;;;;5073570;28;20787;-74
2021/05/19 10:18:56;;;;;;;2.23;1.80;;;18.40;96.00;;;;;;5069561;28;20558;-74
2021/05/19 10:21:28;;;;;;;1.70;1.60;;;18.10;97.20;;;;;;5070788;28;20429;-75
2021/05/19 10:24:11;;;;;;;3.30;2.60;;;18.10;96.70;;;;;;5070591;28;20504;-75
2021/05/19 10:27:07;;;;;;;2.50;1.90;;;17.40;97.80;;;;;;5101208;28;20457;-76
2021/05/19 10:29:57;;;;;;;1.90;1.80;;;17.70;98.20;;;;;;5111444;28;20814;-76
2021/05/19 10:32:23;;;;;;;1.63;1.53;;;17.20;98.10;;;;;;5111644;28;20784;-74
2021/05/19 10:34:53;;;;;;;1.73;1.60;;;17.40;97.80;;;;;;5111820;28;20413;-72
2021/05/19 10:37:37;;;;;;;2.73;1.90;;;17.70;97.80;;;;;;5110818;28;20171;-74
2021/05/19 10:40:12;;;;;;;1.80;1.70;;;17.70;98.30;;;;;;5071815;28;20410;-75
2021/05/19 10:42:43;;;;;;;2.10;1.63;;;17.90;98.10;;;;;;5071332;28;20418;-74
2021/05/19 10:45:15;;;;;;;2.37;1.83;;;16.90;98.20;;;;;;5072299;28;20875;-75
2021/05/19 10:47:45;;;;;;;2.23;2.03;;;16.50;99.60;;;;;;5102008;28;20462;-74
2021/05/19 10:58:52;;;;;;;2.10;1.90;;;17.20;99.40;;;;;;5071278;28;20434;-74
2021/05/19 11:01:38;;;;;;;2.87;2.10;;;17.00;99.40;;;;;;5070921;28;20408;-74
2021/05/19 11:04:16;;;;;;;2.53;1.90;;;17.30;99.90;;;;;;5070564;28;20412;-75
2021/05/19 11:07:00;;;;;;;1.90;1.73;;;16.80;99.30;;;;;;5071365;28;20511;-75
2021/05/19 11:09:36;;;;;;;1.83;1.73;;;17.10;98.70;;;;;;5072594;28;20482;-75
2021/05/19 11:12:21;;;;;;;2.13;1.90;;;17.70;98.30;;;;;;5077547;28;20409;-75
2021/05/19 11:14:50;;;;;;;2.10;1.77;;;17.10;98.00;;;;;;5094955;28;20423;-73
2021/05/19 11:17:28;;;;;;;3.07;1.87;;;17.10;98.90;;;;;;5094632;28;20546;-74
2021/05/19 11:19:53;;;;;;;1.87;1.70;;;17.50;98.80;;;;;;5094860;28;20462;-75
2021/05/19 11:22:20;;;;;;;1.80;1.60;;;17.10;99.20;;;;;;5094438;28;20461;-74
2021/05/19 11:24:48;;;;;;;5.20;1.73;;;17.00;99.80;;;;;;5094440;28;20550;-76
2021/05/19 11:27:34;;;;;;;2.20;2.00;;;16.80;98.00;;;;;;5094159;28;20508;-74
2021/05/19 11:30:03;;;;;;;1.53;1.23;;;17.10;97.30;;;;;;5074166;28;20916;-75
2021/05/19 11:32:31;;;;;;;3.80;1.63;;;16.80;96.70;;;;;;5073145;28;20415;-74
2021/05/19 11:35:32;;;;;;;1.83;1.10;;;17.00;97.30;;;;;;5074231;28;20393;-76
2021/05/19 11:38:02;;;;;;;1.17;1.07;;;16.60;96.30;;;;;;4992034;28;20553;-75
2021/05/19 11:40:49;;;;;;;1.77;1.67;;;16.50;95.60;;;;;;5068156;28;20416;-74
2021/05/19 11:43:15;;;;;;;2.40;1.80;;;16.80;96.90;;;;;;5093894;28;20400;-74
2021/05/19 11:45:45;;;;;;;2.83;1.60;;;17.00;96.90;;;;;;5091547;28;20408;-75
2021/05/19 11:48:38;;;;;;;1.63;1.53;;;16.50;95.90;;;;;;5077113;28;20496;-77
2021/05/19 11:51:16;;;;;;;1.83;1.10;;;16.70;95.80;;;;;;5069435;28;20408;-75
2021/05/19 11:54:02;;;;;;;1.83;1.73;;;17.10;94.50;;;;;;5081168;28;20409;-75
2021/05/19 11:56:47;;;;;;;4.57;1.27;;;16.90;94.00;;;;;;5093275;28;20409;-76
2021/05/19 11:59:14;;;;;;;2.37;1.67;;;17.40;93.60;;;;;;5093463;28;20414;-75
2021/05/19 12:01:52;;;;;;;1.23;1.13;;;17.70;95.00;;;;;;5093573;28;20397;-74
2021/05/19 12:04:18;;;;;;;1.37;1.27;;;18.00;94.60;;;;;;5093040;28;20410;-75
2021/05/19 12:06:47;;;;;;;2.00;1.30;;;17.80;93.90;;;;;;5093402;28;20443;-75
2021/05/19 12:09:14;;;;;;;2.13;1.70;;;17.40;93.60;;;;;;5093466;28;20187;-75
2021/05/19 12:11:39;;;;;;;1.40;1.30;;;17.50;94.20;;;;;;5093485;28;20921;-75
2021/05/19 12:14:08;;;;;;;1.60;1.50;;;17.70;94.90;;;;;;5092758;28;20414;-74
2021/05/19 12:16:36;;;;;;;1.57;1.20;;;17.70;94.20;;;;;;5092922;28;20232;-75
2021/05/19 12:19:07;;;;;;;1.67;1.50;;;17.20;94.00;;;;;;5093112;28;20465;-75
2021/05/19 12:21:33;;;;;;;1.60;1.43;;;16.70;94.70;;;;;;5093053;28;20403;-77
2021/05/19 12:23:59;;;;;;;1.30;1.20;;;16.50;95.40;;;;;;5096950;28;20496;-75
2021/05/19 12:26:26;;;;;;;2.33;1.53;;;16.60;95.10;;;;;;5104745;28;20500;-75
2021/05/19 12:28:51;;;;;;;2.17;1.40;;;16.60;95.00;;;;;;5113452;28;20189;-75
2021/05/19 12:31:34;;;;;;;3.00;2.70;;;16.80;95.70;;;;;;5113346;28;20409;-76
2021/05/19 12:34:00;;;;;;;2.20;2.00;;;16.80;95.90;;;;;;5113338;28;20169;-74
2021/05/19 12:36:35;;;;;;;1.97;1.87;;;16.30;96.60;;;;;;5102685;28;20423;-76
2021/05/19 12:39:03;;;;;;;1.57;1.47;;;16.50;96.40;;;;;;5080957;28;20196;-78
2021/05/19 12:41:41;;;;;;;4.20;1.50;;;16.70;96.30;;;;;;5092570;28;20459;-76
2021/05/19 12:44:07;;;;;;;1.50;1.40;;;17.00;95.40;;;;;;5074683;28;20419;-76
2021/05/19 12:46:33;;;;;;;1.60;1.40;;;16.80;95.50;;;;;;5087891;28;20507;-76
2021/05/19 12:49:05;;;;;;;1.57;1.47;;;16.60;96.10;;;;;;5092219;28;20452;-76
2021/05/19 12:51:47;;;;;;;1.93;1.50;;;16.60;95.30;;;;;;5092318;28;20167;-76
2021/05/19 12:54:17;;;;;;;1.97;1.53;;;16.50;95.30;;;;;;5090430;28;20938;-77
2021/05/19 12:56:43;;;;;;;5.23;1.50;;;16.40;95.60;;;;;;5102611;28;20447;-76
2021/05/19 12:59:09;;;;;;;1.50;1.40;;;16.40;95.70;;;;;;5112453;28;20831;-75
2021/05/19 13:01:43;;;;;;;2.23;1.57;;;16.80;95.30;;;;;;5112395;28;20169;-74
2021/05/19 13:04:09;;;;;;;2.47;2.30;;;16.90;95.00;;;;;;5112598;28;20960;-75
2021/05/19 13:06:35;;;;;;;2.17;1.97;;;16.90;95.20;;;;;;5112113;28;20446;-74
2021/05/19 13:09:05;;;;;;;1.63;1.43;;;16.90;94.80;;;;;;5112820;28;20427;-74